sensor_id;sensor_type;location;lat;lon;timestamp;P1;durP1;ratioP1;P2;durP2;ratioP2
17886;SDS011;9069;52.044;7.472;2023-03-21T00:00:28;11.30;;;5.60;;
17886;SDS011;9069;52.044;7.472;2023-03-21T00:02:54;10.05;;;5.75;;
17886;SDS011;9069;52.044;7.472;2023-03-21T00:05:21;14.27;;;5.63;;
17886;SDS011;9069;52.044;7.472;2023-03-21T00:07:48;11.35;;;5.28;;
17886;SDS011;9069;52.044;7.472;2023-03-21T00:10:15;13.50;;;5.63;;
17886;SDS011;9069;52.044;7.472;2023-03-21T00:12:58;10.68;;;5.18;;
17886;SDS011;9069;52.044;7.472;2023-03-21T00:15:25;11.93;;;5.10;;
17886;SDS011;9069;52.044;7.472;2023-03-21T00:18:07;16.33;;;5.68;;
17886;SDS011;9069;52.044;7.472;2023-03-21T00:20:36;13.00;;;5.30;;
17886;SDS011;9069;52.044;7.472;2023-03-21T00:23:03;14.45;;;5.32;;
17886;SDS011;9069;52.044;7.472;2023-03-21T00:25:30;20.75;;;5.82;;
17886;SDS011;9069;52.044;7.472;2023-03-21T00:27:58;10.40;;;5.45;;
17886;SDS011;9069;52.044;7.472;2023-03-21T00:30:33;15.80;;;5.57;;
17886;SDS011;9069;52.044;7.472;2023-03-21T00:33:00;17.33;;;6.30;;
17886;SDS011;9069;52.044;7.472;2023-03-21T00:35:45;11.82;;;5.45;;
17886;SDS011;9069;52.044;7.472;2023-03-21T00:38:32;11.95;;;4.90;;
17886;SDS011;9069;52.044;7.472;2023-03-21T00:40:59;14.25;;;5.97;;
17886;SDS011;9069;52.044;7.472;2023-03-21T00:43:42;12.60;;;5.72;;
17886;SDS011;9069;52.044;7.472;2023-03-21T00:46:09;13.85;;;6.53;;
17886;SDS011;9069;52.044;7.472;2023-03-21T00:48:37;10.13;;;5.35;;
17886;SDS011;9069;52.044;7.472;2023-03-21T00:51:10;12.95;;;5.72;;
17886;SDS011;9069;52.044;7.472;2023-03-21T00:53:54;10.00;;;5.90;;
17886;SDS011;9069;52.044;7.472;2023-03-21T00:56:26;15.15;;;6.03;;
17886;SDS011;9069;52.044;7.472;2023-03-21T00:58:52;14.52;;;5.72;;
17886;SDS011;9069;52.044;7.472;2023-03-21T01:01:19;13.68;;;5.63;;
17886;SDS011;9069;52.044;7.472;2023-03-21T01:03:46;10.77;;;6.43;;
17886;SDS011;9069;52.044;7.472;2023-03-21T01:06:19;14.25;;;6.65;;
17886;SDS011;9069;52.044;7.472;2023-03-21T01:08:46;11.95;;;6.55;;
17886;SDS011;9069;52.044;7.472;2023-03-21T01:11:19;12.88;;;6.40;;
17886;SDS011;9069;52.044;7.472;2023-03-21T01:13:51;15.18;;;6.55;;
17886;SDS011;9069;52.044;7.472;2023-03-21T01:16:27;12.25;;;6.30;;
17886;SDS011;9069;52.044;7.472;2023-03-21T01:18:55;12.25;;;5.50;;
17886;SDS011;9069;52.044;7.472;2023-03-21T01:21:21;13.18;;;6.28;;
17886;SDS011;9069;52.044;7.472;2023-03-21T01:23:48;9.00;;;5.35;;
17886;SDS011;9069;52.044;7.472;2023-03-21T01:26:15;15.13;;;6.38;;
17886;SDS011;9069;52.044;7.472;2023-03-21T01:28:43;12.60;;;6.53;;
17886;SDS011;9069;52.044;7.472;2023-03-21T01:31:12;16.13;;;6.43;;
17886;SDS011;9069;52.044;7.472;2023-03-21T01:33:41;14.35;;;7.03;;
17886;SDS011;9069;52.044;7.472;2023-03-21T01:36:12;12.43;;;6.05;;
17886;SDS011;9069;52.044;7.472;2023-03-21T01:38:44;12.38;;;5.85;;
17886;SDS011;9069;52.044;7.472;2023-03-21T01:41:17;18.73;;;6.75;;
17886;SDS011;9069;52.044;7.472;2023-03-21T01:44:03;14.15;;;6.53;;
17886;SDS011;9069;52.044;7.472;2023-03-21T01:49:55;15.05;;;6.40;;
17886;SDS011;9069;52.044;7.472;2023-03-21T01:52:32;11.27;;;6.13;;
17886;SDS011;9069;52.044;7.472;2023-03-21T01:55:09;14.35;;;6.43;;
17886;SDS011;9069;52.044;7.472;2023-03-21T01:57:58;13.15;;;6.68;;
17886;SDS011;9069;52.044;7.472;2023-03-21T02:00:40;14.25;;;6.40;;
17886;SDS011;9069;52.044;7.472;2023-03-21T02:03:22;11.00;;;6.10;;
17886;SDS011;9069;52.044;7.472;2023-03-21T02:06:45;12.48;;;6.60;;
17886;SDS011;9069;52.044;7.472;2023-03-21T02:09:27;14.57;;;6.72;;
17886;SDS011;9069;52.044;7.472;2023-03-21T02:11:58;13.10;;;6.40;;
17886;SDS011;9069;52.044;7.472;2023-03-21T02:14:29;11.30;;;5.93;;
17886;SDS011;9069;52.044;7.472;2023-03-21T02:17:07;11.25;;;5.90;;
17886;SDS011;9069;52.044;7.472;2023-03-21T02:22:38;13.85;;;6.30;;
17886;SDS011;9069;52.044;7.472;2023-03-21T02:28:23;15.18;;;6.03;;
17886;SDS011;9069;52.044;7.472;2023-03-21T02:45:15;10.68;;;6.18;;
17886;SDS011;9069;52.044;7.472;2023-03-21T02:47:58;17.15;;;6.43;;
17886;SDS011;9069;52.044;7.472;2023-03-21T02:50:32;16.23;;;6.82;;
17886;SDS011;9069;52.044;7.472;2023-03-21T02:53:07;10.43;;;6.43;;
17886;SDS011;9069;52.044;7.472;2023-03-21T02:55:39;15.05;;;6.40;;
17886;SDS011;9069;52.044;7.472;2023-03-21T02:58:09;11.85;;;6.57;;
17886;SDS011;9069;52.044;7.472;2023-03-21T03:00:47;10.82;;;6.78;;
17886;SDS011;9069;52.044;7.472;2023-03-21T03:03:30;14.43;;;6.72;;
17886;SDS011;9069;52.044;7.472;2023-03-21T03:06:03;13.05;;;6.30;;
17886;SDS011;9069;52.044;7.472;2023-03-21T03:08:46;13.77;;;6.00;;
17886;SDS011;9069;52.044;7.472;2023-03-21T03:11:38;13.57;;;6.72;;
17886;SDS011;9069;52.044;7.472;2023-03-21T03:14:12;16.23;;;7.40;;
17886;SDS011;9069;52.044;7.472;2023-03-21T03:17:18;14.05;;;6.70;;
17886;SDS011;9069;52.044;7.472;2023-03-21T03:26:08;12.02;;;6.38;;
17886;SDS011;9069;52.044;7.472;2023-03-21T03:28:55;13.88;;;7.07;;
17886;SDS011;9069;52.044;7.472;2023-03-21T03:31:28;15.05;;;6.97;;
17886;SDS011;9069;52.044;7.472;2023-03-21T03:34:02;14.20;;;7.03;;
17886;SDS011;9069;52.044;7.472;2023-03-21T03:36:42;13.60;;;7.47;;
17886;SDS011;9069;52.044;7.472;2023-03-21T03:39:14;12.88;;;7.10;;
17886;SDS011;9069;52.044;7.472;2023-03-21T03:41:58;14.55;;;7.38;;
17886;SDS011;9069;52.044;7.472;2023-03-21T03:44:51;18.17;;;6.97;;
17886;SDS011;9069;52.044;7.472;2023-03-21T03:47:37;14.80;;;7.47;;
17886;SDS011;9069;52.044;7.472;2023-03-21T03:50:26;15.73;;;6.75;;
17886;SDS011;9069;52.044;7.472;2023-03-21T03:53:22;8.95;;;6.40;;
17886;SDS011;9069;52.044;7.472;2023-03-21T03:55:55;15.65;;;7.22;;
17886;SDS011;9069;52.044;7.472;2023-03-21T03:58:23;14.15;;;7.05;;
17886;SDS011;9069;52.044;7.472;2023-03-21T04:01:05;11.63;;;6.82;;
17886;SDS011;9069;52.044;7.472;2023-03-21T04:03:33;11.57;;;6.47;;
17886;SDS011;9069;52.044;7.472;2023-03-21T04:06:15;10.52;;;6.10;;
17886;SDS011;9069;52.044;7.472;2023-03-21T04:08:43;14.60;;;6.45;;
17886;SDS011;9069;52.044;7.472;2023-03-21T04:11:12;12.60;;;6.25;;
17886;SDS011;9069;52.044;7.472;2023-03-21T04:13:45;14.15;;;6.50;;
17886;SDS011;9069;52.044;7.472;2023-03-21T04:16:18;11.85;;;6.10;;
17886;SDS011;9069;52.044;7.472;2023-03-21T04:18:45;13.15;;;6.78;;
17886;SDS011;9069;52.044;7.472;2023-03-21T04:21:16;13.40;;;6.22;;
17886;SDS011;9069;52.044;7.472;2023-03-21T04:23:43;13.48;;;6.30;;
17886;SDS011;9069;52.044;7.472;2023-03-21T04:26:10;14.40;;;6.38;;
17886;SDS011;9069;52.044;7.472;2023-03-21T04:28:42;12.23;;;6.15;;
17886;SDS011;9069;52.044;7.472;2023-03-21T04:31:22;14.32;;;7.13;;
17886;SDS011;9069;52.044;7.472;2023-03-21T04:34:03;13.35;;;7.15;;
17886;SDS011;9069;52.044;7.472;2023-03-21T04:36:36;15.30;;;7.05;;
17886;SDS011;9069;52.044;7.472;2023-03-21T04:39:13;13.23;;;7.82;;
17886;SDS011;9069;52.044;7.472;2023-03-21T04:41:44;15.82;;;8.10;;
17886;SDS011;9069;52.044;7.472;2023-03-21T04:44:12;13.10;;;7.50;;
17886;SDS011;9069;52.044;7.472;2023-03-21T04:46:40;12.40;;;7.80;;
17886;SDS011;9069;52.044;7.472;2023-03-21T04:49:08;11.20;;;7.38;;
17886;SDS011;9069;52.044;7.472;2023-03-21T04:51:36;12.13;;;7.30;;
17886;SDS011;9069;52.044;7.472;2023-03-21T04:54:08;13.40;;;8.18;;
17886;SDS011;9069;52.044;7.472;2023-03-21T04:56:34;13.05;;;8.40;;
17886;SDS011;9069;52.044;7.472;2023-03-21T04:59:05;11.90;;;8.15;;
17886;SDS011;9069;52.044;7.472;2023-03-21T05:01:35;12.30;;;7.57;;
17886;SDS011;9069;52.044;7.472;2023-03-21T05:04:02;16.80;;;7.80;;
17886;SDS011;9069;52.044;7.472;2023-03-21T05:06:31;16.77;;;7.78;;
17886;SDS011;9069;52.044;7.472;2023-03-21T05:08:59;10.82;;;6.22;;
17886;SDS011;9069;52.044;7.472;2023-03-21T05:11:32;13.30;;;7.20;;
17886;SDS011;9069;52.044;7.472;2023-03-21T05:14:03;12.48;;;6.50;;
17886;SDS011;9069;52.044;7.472;2023-03-21T05:16:30;13.80;;;6.90;;
17886;SDS011;9069;52.044;7.472;2023-03-21T05:18:58;10.77;;;6.07;;
17886;SDS011;9069;52.044;7.472;2023-03-21T05:21:31;16.23;;;6.38;;
17886;SDS011;9069;52.044;7.472;2023-03-21T05:24:13;12.82;;;6.53;;
17886;SDS011;9069;52.044;7.472;2023-03-21T05:26:46;14.23;;;6.07;;
17886;SDS011;9069;52.044;7.472;2023-03-21T05:29:17;14.07;;;5.70;;
17886;SDS011;9069;52.044;7.472;2023-03-21T05:31:51;16.77;;;6.35;;
17886;SDS011;9069;52.044;7.472;2023-03-21T05:34:18;13.25;;;6.05;;
17886;SDS011;9069;52.044;7.472;2023-03-21T05:36:46;14.77;;;5.90;;
17886;SDS011;9069;52.044;7.472;2023-03-21T05:39:12;11.60;;;5.88;;
17886;SDS011;9069;52.044;7.472;2023-03-21T05:41:44;11.95;;;5.95;;
17886;SDS011;9069;52.044;7.472;2023-03-21T05:44:12;13.68;;;5.75;;
17886;SDS011;9069;52.044;7.472;2023-03-21T05:46:39;11.88;;;5.57;;
17886;SDS011;9069;52.044;7.472;2023-03-21T05:49:06;13.13;;;5.82;;
17886;SDS011;9069;52.044;7.472;2023-03-21T05:51:33;12.68;;;6.45;;
17886;SDS011;9069;52.044;7.472;2023-03-21T05:54:00;17.35;;;6.57;;
17886;SDS011;9069;52.044;7.472;2023-03-21T05:56:28;11.93;;;6.22;;
17886;SDS011;9069;52.044;7.472;2023-03-21T05:59:00;13.98;;;6.60;;
17886;SDS011;9069;52.044;7.472;2023-03-21T06:01:29;12.65;;;6.18;;
17886;SDS011;9069;52.044;7.472;2023-03-21T06:04:05;13.80;;;6.47;;
17886;SDS011;9069;52.044;7.472;2023-03-21T06:06:32;13.40;;;6.72;;
17886;SDS011;9069;52.044;7.472;2023-03-21T06:09:00;15.27;;;6.72;;
17886;SDS011;9069;52.044;7.472;2023-03-21T06:11:30;17.73;;;7.50;;
17886;SDS011;9069;52.044;7.472;2023-03-21T06:14:22;11.57;;;7.50;;
17886;SDS011;9069;52.044;7.472;2023-03-21T06:17:11;19.30;;;9.27;;
17886;SDS011;9069;52.044;7.472;2023-03-21T06:20:01;16.67;;;9.30;;
17886;SDS011;9069;52.044;7.472;2023-03-21T06:22:34;20.33;;;9.65;;
17886;SDS011;9069;52.044;7.472;2023-03-21T06:25:02;16.10;;;9.20;;
17886;SDS011;9069;52.044;7.472;2023-03-21T06:27:29;20.33;;;9.45;;
17886;SDS011;9069;52.044;7.472;2023-03-21T06:29:57;17.67;;;9.32;;
17886;SDS011;9069;52.044;7.472;2023-03-21T06:32:26;24.17;;;10.15;;
17886;SDS011;9069;52.044;7.472;2023-03-21T06:34:57;16.88;;;9.35;;
17886;SDS011;9069;52.044;7.472;2023-03-21T06:37:23;21.70;;;10.85;;
17886;SDS011;9069;52.044;7.472;2023-03-21T06:39:52;16.20;;;10.43;;
17886;SDS011;9069;52.044;7.472;2023-03-21T06:42:21;23.05;;;10.40;;
17886;SDS011;9069;52.044;7.472;2023-03-21T06:44:49;21.50;;;10.27;;
17886;SDS011;9069;52.044;7.472;2023-03-21T06:47:16;18.70;;;10.52;;
17886;SDS011;9069;52.044;7.472;2023-03-21T06:49:44;18.90;;;10.35;;
17886;SDS011;9069;52.044;7.472;2023-03-21T06:52:11;23.55;;;10.88;;
17886;SDS011;9069;52.044;7.472;2023-03-21T06:54:40;21.25;;;12.80;;
17886;SDS011;9069;52.044;7.472;2023-03-21T06:57:12;23.02;;;12.10;;
17886;SDS011;9069;52.044;7.472;2023-03-21T06:59:39;20.98;;;11.10;;
17886;SDS011;9069;52.044;7.472;2023-03-21T07:02:14;18.77;;;11.27;;
17886;SDS011;9069;52.044;7.472;2023-03-21T07:04:58;20.92;;;11.68;;
17886;SDS011;9069;52.044;7.472;2023-03-21T07:07:27;19.33;;;11.20;;
17886;SDS011;9069;52.044;7.472;2023-03-21T07:09:55;19.35;;;11.13;;
17886;SDS011;9069;52.044;7.472;2023-03-21T07:12:22;21.25;;;10.95;;
17886;SDS011;9069;52.044;7.472;2023-03-21T07:15:08;18.67;;;9.93;;
17886;SDS011;9069;52.044;7.472;2023-03-21T07:17:36;22.15;;;9.95;;
17886;SDS011;9069;52.044;7.472;2023-03-21T07:20:03;19.00;;;9.98;;
17886;SDS011;9069;52.044;7.472;2023-03-21T07:22:34;20.73;;;9.90;;
17886;SDS011;9069;52.044;7.472;2023-03-21T07:25:01;14.45;;;8.85;;
17886;SDS011;9069;52.044;7.472;2023-03-21T07:27:36;20.60;;;10.02;;
17886;SDS011;9069;52.044;7.472;2023-03-21T07:30:06;18.60;;;9.32;;
17886;SDS011;9069;52.044;7.472;2023-03-21T07:32:34;14.75;;;8.60;;
17886;SDS011;9069;52.044;7.472;2023-03-21T07:35:03;15.82;;;8.30;;
17886;SDS011;9069;52.044;7.472;2023-03-21T07:37:31;13.73;;;8.20;;
17886;SDS011;9069;52.044;7.472;2023-03-21T07:39:58;20.17;;;8.05;;
17886;SDS011;9069;52.044;7.472;2023-03-21T07:42:24;15.27;;;8.30;;
17886;SDS011;9069;52.044;7.472;2023-03-21T07:44:57;13.60;;;7.50;;
17886;SDS011;9069;52.044;7.472;2023-03-21T07:47:26;16.00;;;7.20;;
17886;SDS011;9069;52.044;7.472;2023-03-21T07:49:54;12.70;;;7.28;;
17886;SDS011;9069;52.044;7.472;2023-03-21T07:52:21;12.23;;;7.25;;
17886;SDS011;9069;52.044;7.472;2023-03-21T07:54:48;19.38;;;7.50;;
17886;SDS011;9069;52.044;7.472;2023-03-21T07:57:14;16.17;;;7.93;;
17886;SDS011;9069;52.044;7.472;2023-03-21T07:59:42;14.00;;;7.00;;
17886;SDS011;9069;52.044;7.472;2023-03-21T08:02:11;14.77;;;7.32;;
17886;SDS011;9069;52.044;7.472;2023-03-21T08:04:40;13.57;;;6.90;;
17886;SDS011;9069;52.044;7.472;2023-03-21T08:07:06;13.05;;;7.45;;
17886;SDS011;9069;52.044;7.472;2023-03-21T08:09:33;15.27;;;7.13;;
17886;SDS011;9069;52.044;7.472;2023-03-21T08:12:01;12.25;;;6.38;;
17886;SDS011;9069;52.044;7.472;2023-03-21T08:14:29;13.18;;;7.57;;
17886;SDS011;9069;52.044;7.472;2023-03-21T08:16:56;11.98;;;6.60;;
17886;SDS011;9069;52.044;7.472;2023-03-21T08:19:22;14.07;;;6.93;;
17886;SDS011;9069;52.044;7.472;2023-03-21T08:21:49;16.20;;;6.78;;
17886;SDS011;9069;52.044;7.472;2023-03-21T08:24:17;12.55;;;6.20;;
17886;SDS011;9069;52.044;7.472;2023-03-21T08:26:44;11.65;;;6.38;;
17886;SDS011;9069;52.044;7.472;2023-03-21T08:29:12;17.02;;;6.93;;
17886;SDS011;9069;52.044;7.472;2023-03-21T08:31:39;19.80;;;7.95;;
17886;SDS011;9069;52.044;7.472;2023-03-21T08:34:06;15.13;;;7.38;;
17886;SDS011;9069;52.044;7.472;2023-03-21T08:36:34;13.75;;;6.88;;
17886;SDS011;9069;52.044;7.472;2023-03-21T08:39:02;16.30;;;6.95;;
17886;SDS011;9069;52.044;7.472;2023-03-21T08:41:34;13.02;;;6.20;;
17886;SDS011;9069;52.044;7.472;2023-03-21T08:44:01;13.40;;;6.15;;
17886;SDS011;9069;52.044;7.472;2023-03-21T08:46:31;12.00;;;6.43;;
17886;SDS011;9069;52.044;7.472;2023-03-21T08:48:57;17.08;;;6.45;;
17886;SDS011;9069;52.044;7.472;2023-03-21T08:51:24;13.23;;;6.28;;
17886;SDS011;9069;52.044;7.472;2023-03-21T08:53:51;12.98;;;6.40;;
17886;SDS011;9069;52.044;7.472;2023-03-21T08:56:18;12.52;;;6.40;;
17886;SDS011;9069;52.044;7.472;2023-03-21T08:58:44;14.23;;;7.13;;
17886;SDS011;9069;52.044;7.472;2023-03-21T09:01:12;14.75;;;6.93;;
17886;SDS011;9069;52.044;7.472;2023-03-21T09:03:41;14.43;;;7.30;;
17886;SDS011;9069;52.044;7.472;2023-03-21T09:06:09;14.98;;;7.03;;
17886;SDS011;9069;52.044;7.472;2023-03-21T09:08:39;16.15;;;6.95;;
17886;SDS011;9069;52.044;7.472;2023-03-21T09:11:07;12.75;;;6.13;;
17886;SDS011;9069;52.044;7.472;2023-03-21T09:13:34;14.10;;;7.30;;
17886;SDS011;9069;52.044;7.472;2023-03-21T09:16:01;12.18;;;6.65;;
17886;SDS011;9069;52.044;7.472;2023-03-21T09:18:29;11.70;;;5.90;;
17886;SDS011;9069;52.044;7.472;2023-03-21T09:21:13;11.07;;;5.63;;
17886;SDS011;9069;52.044;7.472;2023-03-21T09:23:41;13.40;;;7.38;;
17886;SDS011;9069;52.044;7.472;2023-03-21T09:26:09;18.85;;;7.95;;
17886;SDS011;9069;52.044;7.472;2023-03-21T09:28:37;16.50;;;7.40;;
17886;SDS011;9069;52.044;7.472;2023-03-21T09:31:05;11.65;;;6.07;;
17886;SDS011;9069;52.044;7.472;2023-03-21T09:33:34;11.88;;;6.15;;
17886;SDS011;9069;52.044;7.472;2023-03-21T09:36:01;10.73;;;5.15;;
17886;SDS011;9069;52.044;7.472;2023-03-21T09:38:28;16.63;;;6.28;;
17886;SDS011;9069;52.044;7.472;2023-03-21T09:49:15;10.63;;;5.20;;
17886;SDS011;9069;52.044;7.472;2023-03-21T09:51:44;15.50;;;5.95;;
17886;SDS011;9069;52.044;7.472;2023-03-21T09:56:46;12.57;;;5.60;;
17886;SDS011;9069;52.044;7.472;2023-03-21T09:59:24;12.45;;;5.32;;
17886;SDS011;9069;52.044;7.472;2023-03-21T10:01:58;9.30;;;5.20;;
17886;SDS011;9069;52.044;7.472;2023-03-21T10:04:26;16.48;;;6.03;;
17886;SDS011;9069;52.044;7.472;2023-03-21T10:06:58;16.05;;;5.90;;
17886;SDS011;9069;52.044;7.472;2023-03-21T10:09:27;10.85;;;5.40;;
17886;SDS011;9069;52.044;7.472;2023-03-21T10:11:56;15.65;;;5.95;;
17886;SDS011;9069;52.044;7.472;2023-03-21T10:17:12;17.27;;;5.60;;
17886;SDS011;9069;52.044;7.472;2023-03-21T10:19:57;11.30;;;5.35;;
17886;SDS011;9069;52.044;7.472;2023-03-21T10:22:41;15.73;;;6.07;;
17886;SDS011;9069;52.044;7.472;2023-03-21T10:25:18;13.05;;;6.60;;
17886;SDS011;9069;52.044;7.472;2023-03-21T10:27:49;9.57;;;5.68;;
17886;SDS011;9069;52.044;7.472;2023-03-21T10:30:19;11.00;;;6.25;;
17886;SDS011;9069;52.044;7.472;2023-03-21T10:32:50;10.65;;;4.95;;
17886;SDS011;9069;52.044;7.472;2023-03-21T10:35:17;9.55;;;5.43;;
17886;SDS011;9069;52.044;7.472;2023-03-21T10:37:45;11.93;;;5.40;;
17886;SDS011;9069;52.044;7.472;2023-03-21T10:40:13;13.10;;;5.40;;
17886;SDS011;9069;52.044;7.472;2023-03-21T10:42:42;14.00;;;5.57;;
17886;SDS011;9069;52.044;7.472;2023-03-21T10:45:13;9.82;;;5.05;;
17886;SDS011;9069;52.044;7.472;2023-03-21T10:47:42;12.23;;;5.28;;
17886;SDS011;9069;52.044;7.472;2023-03-21T10:50:14;13.02;;;5.18;;
17886;SDS011;9069;52.044;7.472;2023-03-21T10:52:47;14.90;;;5.78;;
17886;SDS011;9069;52.044;7.472;2023-03-21T10:57:43;9.15;;;5.32;;
17886;SDS011;9069;52.044;7.472;2023-03-21T11:00:18;11.48;;;5.38;;
17886;SDS011;9069;52.044;7.472;2023-03-21T11:02:48;9.05;;;5.20;;
17886;SDS011;9069;52.044;7.472;2023-03-21T11:05:35;9.05;;;5.78;;
17886;SDS011;9069;52.044;7.472;2023-03-21T11:08:10;10.27;;;5.88;;
17886;SDS011;9069;52.044;7.472;2023-03-21T11:10:53;10.25;;;5.43;;
17886;SDS011;9069;52.044;7.472;2023-03-21T11:13:31;13.13;;;6.32;;
17886;SDS011;9069;52.044;7.472;2023-03-21T11:16:04;10.63;;;5.97;;
17886;SDS011;9069;52.044;7.472;2023-03-21T11:18:56;9.43;;;6.10;;
17886;SDS011;9069;52.044;7.472;2023-03-21T11:21:26;8.77;;;5.60;;
17886;SDS011;9069;52.044;7.472;2023-03-21T11:23:55;9.98;;;6.53;;
17886;SDS011;9069;52.044;7.472;2023-03-21T11:26:26;11.63;;;6.45;;
17886;SDS011;9069;52.044;7.472;2023-03-21T11:28:55;10.27;;;6.20;;
17886;SDS011;9069;52.044;7.472;2023-03-21T11:31:38;11.25;;;6.00;;
17886;SDS011;9069;52.044;7.472;2023-03-21T11:34:06;12.52;;;5.80;;
17886;SDS011;9069;52.044;7.472;2023-03-21T11:36:35;12.95;;;6.40;;
17886;SDS011;9069;52.044;7.472;2023-03-21T11:42:05;14.10;;;6.95;;
17886;SDS011;9069;52.044;7.472;2023-03-21T11:45:01;10.65;;;6.88;;
17886;SDS011;9069;52.044;7.472;2023-03-21T11:47:35;13.27;;;6.68;;
17886;SDS011;9069;52.044;7.472;2023-03-21T11:50:05;11.18;;;6.95;;
17886;SDS011;9069;52.044;7.472;2023-03-21T11:58:19;8.85;;;5.82;;
17886;SDS011;9069;52.044;7.472;2023-03-21T12:00:58;10.80;;;6.13;;
17886;SDS011;9069;52.044;7.472;2023-03-21T12:06:47;9.95;;;5.97;;
17886;SDS011;9069;52.044;7.472;2023-03-21T12:17:42;12.23;;;4.88;;
17886;SDS011;9069;52.044;7.472;2023-03-21T12:20:40;7.57;;;4.45;;
17886;SDS011;9069;52.044;7.472;2023-03-21T12:26:25;9.43;;;4.90;;
17886;SDS011;9069;52.044;7.472;2023-03-21T12:31:41;7.75;;;4.50;;
17886;SDS011;9069;52.044;7.472;2023-03-21T12:36:58;9.23;;;4.70;;
17886;SDS011;9069;52.044;7.472;2023-03-21T12:39:39;6.75;;;4.57;;
17886;SDS011;9069;52.044;7.472;2023-03-21T12:47:48;5.45;;;3.40;;
17886;SDS011;9069;52.044;7.472;2023-03-21T12:50:22;6.32;;;4.55;;
17886;SDS011;9069;52.044;7.472;2023-03-21T12:52:58;6.63;;;3.88;;
17886;SDS011;9069;52.044;7.472;2023-03-21T12:55:33;6.07;;;2.80;;
17886;SDS011;9069;52.044;7.472;2023-03-21T12:58:19;7.47;;;3.63;;
17886;SDS011;9069;52.044;7.472;2023-03-21T13:00:56;5.43;;;3.40;;
17886;SDS011;9069;52.044;7.472;2023-03-21T13:03:31;5.63;;;3.17;;
17886;SDS011;9069;52.044;7.472;2023-03-21T13:06:06;5.25;;;2.85;;
17886;SDS011;9069;52.044;7.472;2023-03-21T13:08:45;7.35;;;2.88;;
17886;SDS011;9069;52.044;7.472;2023-03-21T13:11:17;5.03;;;2.55;;
17886;SDS011;9069;52.044;7.472;2023-03-21T13:14:05;5.22;;;2.80;;
17886;SDS011;9069;52.044;7.472;2023-03-21T13:16:38;6.50;;;2.50;;
17886;SDS011;9069;52.044;7.472;2023-03-21T13:19:22;5.70;;;2.50;;
17886;SDS011;9069;52.044;7.472;2023-03-21T13:24:38;6.55;;;2.72;;
17886;SDS011;9069;52.044;7.472;2023-03-21T13:32:47;7.03;;;2.55;;
17886;SDS011;9069;52.044;7.472;2023-03-21T13:35:21;5.80;;;2.70;;
17886;SDS011;9069;52.044;7.472;2023-03-21T13:38:01;6.00;;;2.65;;
17886;SDS011;9069;52.044;7.472;2023-03-21T13:40:48;8.15;;;2.50;;
17886;SDS011;9069;52.044;7.472;2023-03-21T13:46:14;8.55;;;2.90;;
17886;SDS011;9069;52.044;7.472;2023-03-21T13:49:33;6.18;;;2.92;;
17886;SDS011;9069;52.044;7.472;2023-03-21T13:57:04;8.30;;;3.10;;
17886;SDS011;9069;52.044;7.472;2023-03-21T13:59:36;6.78;;;3.05;;
17886;SDS011;9069;52.044;7.472;2023-03-21T14:04:52;7.13;;;3.10;;
17886;SDS011;9069;52.044;7.472;2023-03-21T14:07:33;5.78;;;3.13;;
17886;SDS011;9069;52.044;7.472;2023-03-21T14:10:22;5.32;;;2.90;;
17886;SDS011;9069;52.044;7.472;2023-03-21T14:12:54;5.03;;;2.97;;
17886;SDS011;9069;52.044;7.472;2023-03-21T14:15:23;5.80;;;3.03;;
17886;SDS011;9069;52.044;7.472;2023-03-21T14:17:53;6.97;;;3.35;;
17886;SDS011;9069;52.044;7.472;2023-03-21T14:20:30;6.22;;;2.80;;
17886;SDS011;9069;52.044;7.472;2023-03-21T14:22:59;6.70;;;2.97;;
17886;SDS011;9069;52.044;7.472;2023-03-21T14:25:31;7.55;;;2.83;;
17886;SDS011;9069;52.044;7.472;2023-03-21T14:28:13;5.50;;;3.33;;
17886;SDS011;9069;52.044;7.472;2023-03-21T14:30:44;5.72;;;3.00;;
17886;SDS011;9069;52.044;7.472;2023-03-21T14:33:31;5.38;;;2.60;;
17886;SDS011;9069;52.044;7.472;2023-03-21T14:36:15;10.18;;;2.80;;
17886;SDS011;9069;52.044;7.472;2023-03-21T14:38:51;6.60;;;2.47;;
17886;SDS011;9069;52.044;7.472;2023-03-21T14:41:23;8.27;;;2.40;;
17886;SDS011;9069;52.044;7.472;2023-03-21T14:46:40;6.30;;;2.00;;
17886;SDS011;9069;52.044;7.472;2023-03-21T14:49:12;4.38;;;2.03;;
17886;SDS011;9069;52.044;7.472;2023-03-21T14:51:54;2.58;;;1.73;;
17886;SDS011;9069;52.044;7.472;2023-03-21T14:54:23;6.03;;;2.15;;
17886;SDS011;9069;52.044;7.472;2023-03-21T14:56:54;4.78;;;2.17;;
17886;SDS011;9069;52.044;7.472;2023-03-21T14:59:27;5.80;;;2.13;;
17886;SDS011;9069;52.044;7.472;2023-03-21T15:01:58;2.78;;;1.60;;
17886;SDS011;9069;52.044;7.472;2023-03-21T15:04:28;2.42;;;1.70;;
17886;SDS011;9069;52.044;7.472;2023-03-21T15:07:00;3.20;;;1.60;;
17886;SDS011;9069;52.044;7.472;2023-03-21T15:09:30;4.03;;;1.98;;
17886;SDS011;9069;52.044;7.472;2023-03-21T15:11:59;9.52;;;1.92;;
17886;SDS011;9069;52.044;7.472;2023-03-21T15:14:33;2.97;;;1.60;;
17886;SDS011;9069;52.044;7.472;2023-03-21T15:17:01;3.35;;;1.90;;
17886;SDS011;9069;52.044;7.472;2023-03-21T15:19:31;4.32;;;1.70;;
17886;SDS011;9069;52.044;7.472;2023-03-21T15:22:02;4.25;;;2.35;;
17886;SDS011;9069;52.044;7.472;2023-03-21T15:24:37;4.85;;;2.05;;
17886;SDS011;9069;52.044;7.472;2023-03-21T15:27:12;6.32;;;1.75;;
17886;SDS011;9069;52.044;7.472;2023-03-21T15:29:41;4.57;;;2.58;;
17886;SDS011;9069;52.044;7.472;2023-03-21T15:32:11;6.47;;;2.05;;
17886;SDS011;9069;52.044;7.472;2023-03-21T15:34:43;3.55;;;1.88;;
17886;SDS011;9069;52.044;7.472;2023-03-21T15:37:20;2.78;;;1.73;;
17886;SDS011;9069;52.044;7.472;2023-03-21T15:39:49;6.32;;;2.45;;
17886;SDS011;9069;52.044;7.472;2023-03-21T15:42:27;4.53;;;2.00;;
17886;SDS011;9069;52.044;7.472;2023-03-21T15:44:57;2.70;;;2.20;;
17886;SDS011;9069;52.044;7.472;2023-03-21T15:50:21;3.85;;;2.58;;
17886;SDS011;9069;52.044;7.472;2023-03-21T15:52:52;3.92;;;2.05;;
17886;SDS011;9069;52.044;7.472;2023-03-21T15:55:24;4.90;;;2.60;;
17886;SDS011;9069;52.044;7.472;2023-03-21T15:58:09;3.45;;;2.42;;
17886;SDS011;9069;52.044;7.472;2023-03-21T16:00:42;3.58;;;2.70;;
17886;SDS011;9069;52.044;7.472;2023-03-21T16:03:30;4.55;;;2.40;;
17886;SDS011;9069;52.044;7.472;2023-03-21T16:06:06;5.35;;;1.95;;
17886;SDS011;9069;52.044;7.472;2023-03-21T16:08:48;4.95;;;2.60;;
17886;SDS011;9069;52.044;7.472;2023-03-21T16:11:24;3.92;;;2.47;;
17886;SDS011;9069;52.044;7.472;2023-03-21T16:13:54;4.65;;;2.15;;
17886;SDS011;9069;52.044;7.472;2023-03-21T16:16:22;4.93;;;2.40;;
17886;SDS011;9069;52.044;7.472;2023-03-21T16:18:50;4.50;;;2.60;;
17886;SDS011;9069;52.044;7.472;2023-03-21T16:21:20;4.20;;;2.55;;
17886;SDS011;9069;52.044;7.472;2023-03-21T16:23:49;4.63;;;2.40;;
17886;SDS011;9069;52.044;7.472;2023-03-21T16:26:16;5.15;;;2.50;;
17886;SDS011;9069;52.044;7.472;2023-03-21T16:28:48;7.38;;;2.80;;
17886;SDS011;9069;52.044;7.472;2023-03-21T16:31:17;5.68;;;2.60;;
17886;SDS011;9069;52.044;7.472;2023-03-21T16:33:45;4.63;;;2.50;;
17886;SDS011;9069;52.044;7.472;2023-03-21T16:38:53;5.97;;;3.15;;
17886;SDS011;9069;52.044;7.472;2023-03-21T16:41:23;7.60;;;3.28;;
17886;SDS011;9069;52.044;7.472;2023-03-21T16:43:51;6.30;;;2.95;;
17886;SDS011;9069;52.044;7.472;2023-03-21T16:46:19;4.47;;;3.10;;
17886;SDS011;9069;52.044;7.472;2023-03-21T16:48:52;4.63;;;2.83;;
17886;SDS011;9069;52.044;7.472;2023-03-21T16:51:21;7.32;;;2.67;;
17886;SDS011;9069;52.044;7.472;2023-03-21T16:53:59;5.78;;;2.90;;
17886;SDS011;9069;52.044;7.472;2023-03-21T16:58:55;5.43;;;2.70;;
17886;SDS011;9069;52.044;7.472;2023-03-21T17:01:23;7.50;;;3.10;;
17886;SDS011;9069;52.044;7.472;2023-03-21T17:03:55;6.32;;;2.70;;
17886;SDS011;9069;52.044;7.472;2023-03-21T17:06:26;4.22;;;3.03;;
17886;SDS011;9069;52.044;7.472;2023-03-21T17:08:54;4.10;;;2.70;;
17886;SDS011;9069;52.044;7.472;2023-03-21T17:11:23;4.13;;;2.70;;
17886;SDS011;9069;52.044;7.472;2023-03-21T17:13:52;5.75;;;2.60;;